Time;durP1;ratioP1;P1;durP2;ratioP2;P2;SDS_P1;SDS_P2;PMS_P1;PMS_P2;Temp;Humidity;BMP_temperature;BMP_pressure;BME280_temperature;BME280_humidity;BME280_pressure;Samples;Min_cycle;Max_cycle;Signal;HPM_P1;HPM_P2
2022/04/17 00:00:47;;;;;;;3.85;3.50;;;7.70;99.90;;;;;;5120269;27;20208;-74
2022/04/17 00:03:14;;;;;;;3.20;3.00;;;7.70;99.90;;;;;;5138886;27;20607;-74
2022/04/17 00:05:40;;;;;;;3.15;2.90;;;7.80;99.90;;;;;;5138434;27;20598;-74
2022/04/17 00:08:07;;;;;;;3.75;3.45;;;7.80;99.90;;;;;;5138572;27;20238;-74
2022/04/17 00:10:33;;;;;;;3.20;3.00;;;7.70;99.90;;;;;;5138403;27;20182;-74
2022/04/17 00:13:00;;;;;;;4.05;3.75;;;7.70;99.90;;;;;;5138796;27;20202;-74
2022/04/17 00:15:26;;;;;;;3.05;2.85;;;7.70;99.90;;;;;;5138548;27;20213;-74
2022/04/17 00:17:52;;;;;;;3.33;3.00;;;7.70;99.90;;;;;;5138894;27;20557;-74
2022/04/17 00:20:19;;;;;;;3.38;3.05;;;7.70;99.90;;;;;;5137974;27;20194;-74
2022/04/17 00:22:46;;;;;;;3.90;3.40;;;7.80;99.90;;;;;;5138378;27;20672;-74
2022/04/17 00:25:14;;;;;;;4.47;3.60;;;7.80;99.90;;;;;;5137616;27;20569;-74
2022/04/17 00:27:40;;;;;;;3.75;3.45;;;7.70;99.90;;;;;;5138194;27;20641;-74
2022/04/17 00:30:08;;;;;;;4.82;4.05;;;7.60;99.90;;;;;;5138717;27;20204;-74
2022/04/17 00:32:36;;;;;;;3.80;3.60;;;7.60;99.90;;;;;;5138461;27;20197;-74
2022/04/17 00:35:04;;;;;;;4.25;3.85;;;7.60;99.90;;;;;;5137715;27;20213;-74
2022/04/17 00:37:30;;;;;;;4.40;4.00;;;7.50;99.90;;;;;;5138667;27;20675;-74
2022/04/17 00:39:57;;;;;;;5.20;4.10;;;7.50;99.90;;;;;;5138607;27;20197;-73
2022/04/17 00:42:23;;;;;;;3.92;3.63;;;7.40;99.90;;;;;;5120159;27;20239;-74
2022/04/17 00:44:50;;;;;;;3.25;3.03;;;7.40;99.90;;;;;;5138110;27;20209;-74
2022/04/17 00:47:16;;;;;;;5.43;4.95;;;7.40;99.90;;;;;;5138223;27;20201;-74
2022/04/17 00:49:44;;;;;;;3.30;3.10;;;7.30;99.90;;;;;;5137128;27;20194;-74
2022/04/17 00:52:12;;;;;;;12.02;4.80;;;7.30;99.90;;;;;;5137426;27;20607;-74
2022/04/17 00:54:46;;;;;;;4.10;3.80;;;7.30;99.90;;;;;;5137526;27;20194;-74
2022/04/17 00:57:16;;;;;;;4.25;3.67;;;7.20;99.90;;;;;;5137480;27;20204;-74
2022/04/17 00:59:44;;;;;;;3.65;3.35;;;7.20;99.90;;;;;;5136967;27;20202;-75
2022/04/17 01:02:13;;;;;;;5.88;4.10;;;7.20;99.90;;;;;;5137285;27;20202;-74
2022/04/17 01:04:40;;;;;;;3.95;3.65;;;7.10;99.90;;;;;;5136782;27;20198;-74
2022/04/17 01:07:08;;;;;;;4.20;3.80;;;7.00;99.90;;;;;;5136964;27;20222;-74
2022/04/17 01:09:35;;;;;;;5.10;4.35;;;7.00;99.90;;;;;;5136234;27;20255;-74
2022/04/17 01:12:03;;;;;;;6.32;4.13;;;7.00;99.90;;;;;;5135779;27;20197;-74
2022/04/17 01:14:30;;;;;;;5.43;3.85;;;7.00;99.90;;;;;;5136761;27;20646;-74
2022/04/17 01:16:56;;;;;;;3.72;3.42;;;7.00;99.90;;;;;;5136615;27;20194;-74
2022/04/17 01:19:23;;;;;;;6.28;4.18;;;7.00;99.90;;;;;;5136301;27;20255;-74
2022/04/17 01:21:50;;;;;;;7.18;3.38;;;7.00;99.90;;;;;;5136953;27;20205;-74
2022/04/17 01:27:03;;;;;;;8.70;3.65;;;6.80;99.90;;;;;;5136341;27;20189;-74
2022/04/17 01:29:35;;;;;;;4.35;3.95;;;6.80;99.90;;;;;;5136573;27;20247;-74
2022/04/17 01:32:07;;;;;;;4.22;3.83;;;6.80;99.90;;;;;;5137089;27;20243;-74
2022/04/17 01:34:35;;;;;;;5.47;3.83;;;6.80;99.90;;;;;;5119022;27;20186;-74
2022/04/17 01:37:01;;;;;;;4.72;3.60;;;6.70;99.90;;;;;;5136592;27;20202;-74
2022/04/17 01:39:29;;;;;;;3.75;3.17;;;6.70;99.90;;;;;;5135864;27;20201;-74
2022/04/17 01:41:56;;;;;;;3.65;3.20;;;6.70;99.90;;;;;;5136432;27;20202;-74
2022/04/17 01:44:25;;;;;;;3.88;3.58;;;6.70;99.90;;;;;;5117749;27;20553;-75
2022/04/17 01:46:52;;;;;;;4.32;3.90;;;6.70;99.90;;;;;;5135967;27;20202;-74
2022/04/17 01:49:19;;;;;;;3.35;3.15;;;6.70;99.90;;;;;;5136146;27;20215;-74
2022/04/17 01:51:47;;;;;;;3.97;3.67;;;6.70;99.90;;;;;;5116986;27;20552;-74
2022/04/17 01:54:15;;;;;;;4.13;3.78;;;6.60;99.90;;;;;;5099790;27;20198;-74
2022/04/17 01:56:43;;;;;;;3.70;3.33;;;6.60;99.90;;;;;;5135726;27;20221;-75
2022/04/17 01:59:10;;;;;;;3.65;3.35;;;6.60;99.90;;;;;;5136199;27;20198;-75
2022/04/17 02:01:38;;;;;;;2.80;2.55;;;6.50;99.90;;;;;;5134976;27;20250;-75
2022/04/17 02:04:06;;;;;;;3.90;3.60;;;6.50;99.90;;;;;;5135329;27;20201;-74
2022/04/17 02:06:33;;;;;;;4.45;3.70;;;6.40;99.90;;;;;;5136060;27;20218;-74
2022/04/17 02:09:00;;;;;;;3.30;3.10;;;6.40;99.90;;;;;;5134844;27;20242;-74
2022/04/17 02:11:30;;;;;;;3.78;3.22;;;6.30;99.90;;;;;;5134997;27;20204;-74
2022/04/17 02:13:57;;;;;;;4.00;3.50;;;6.30;99.90;;;;;;5136049;27;20198;-74
2022/04/17 02:16:24;;;;;;;3.58;3.38;;;6.30;99.90;;;;;;5135099;28;20228;-74
2022/04/17 02:18:52;;;;;;;3.88;3.53;;;6.30;99.90;;;;;;5135714;28;20205;-74
2022/04/17 02:21:19;;;;;;;3.20;3.00;;;6.30;99.90;;;;;;5135927;28;20198;-75
2022/04/17 02:23:46;;;;;;;3.40;3.20;;;6.20;99.90;;;;;;5135957;28;20229;-74
2022/04/17 02:26:17;;;;;;;3.83;3.60;;;6.20;99.90;;;;;;5135318;28;20255;-74
2022/04/17 02:28:44;;;;;;;3.78;3.50;;;6.10;99.90;;;;;;5134991;28;20202;-76
2022/04/17 02:31:10;;;;;;;5.53;3.78;;;6.10;99.90;;;;;;5135547;28;20441;-74
2022/04/17 02:33:38;;;;;;;3.33;3.03;;;6.00;99.90;;;;;;5116803;28;20209;-74
2022/04/17 02:36:06;;;;;;;3.72;3.42;;;6.10;99.90;;;;;;5135819;28;20244;-74
2022/04/17 02:38:32;;;;;;;3.53;3.20;;;6.00;99.90;;;;;;5135702;28;20205;-74
2022/04/17 02:40:59;;;;;;;3.90;3.60;;;6.00;99.90;;;;;;5135384;28;20197;-74
2022/04/17 02:43:25;;;;;;;3.80;3.50;;;6.00;99.90;;;;;;5135184;28;20197;-74
2022/04/17 02:45:53;;;;;;;4.90;4.50;;;6.00;99.90;;;;;;5134822;28;20202;-74
2022/04/17 02:48:20;;;;;;;6.13;5.07;;;6.00;99.90;;;;;;5135114;28;20220;-74
2022/04/17 02:50:47;;;;;;;5.30;4.63;;;6.00;99.90;;;;;;5134743;28;20194;-74
2022/04/17 02:53:15;;;;;;;5.32;4.82;;;6.00;99.90;;;;;;5135221;28;20201;-75
2022/04/17 02:55:42;;;;;;;5.68;5.15;;;5.90;99.90;;;;;;5135226;28;20599;-74
2022/04/17 02:58:10;;;;;;;6.03;4.93;;;5.80;99.90;;;;;;5134601;28;20202;-74
2022/04/17 03:06:11;;;;;;;3.80;3.55;;;5.60;99.90;;;;;;5139464;27;20609;-74
2022/04/17 03:08:42;;;;;;;3.95;3.25;;;5.60;99.90;;;;;;5138825;27;20233;-74
2022/04/17 03:11:09;;;;;;;3.60;3.30;;;5.60;99.90;;;;;;5121089;27;20201;-74
2022/04/17 03:13:35;;;;;;;3.40;3.20;;;5.70;99.90;;;;;;5139280;27;20209;-74
2022/04/17 03:16:02;;;;;;;3.70;3.40;;;5.70;99.90;;;;;;5139787;27;20218;-74
2022/04/17 03:18:29;;;;;;;4.65;3.30;;;5.70;99.90;;;;;;5120503;27;20205;-74
2022/04/17 03:20:58;;;;;;;4.50;2.95;;;5.70;99.90;;;;;;5120605;27;20194;-74
2022/04/17 03:23:24;;;;;;;3.72;3.38;;;5.60;99.90;;;;;;5139185;27;20688;-74
2022/04/17 03:25:51;;;;;;;3.60;3.30;;;5.60;99.90;;;;;;5139427;27;20210;-74
2022/04/17 03:28:17;;;;;;;3.78;3.28;;;5.60;99.90;;;;;;5139327;27;20250;-74
2022/04/17 03:30:44;;;;;;;3.50;3.20;;;5.60;99.90;;;;;;5139392;27;20562;-74
2022/04/17 03:33:12;;;;;;;3.88;3.38;;;5.70;99.90;;;;;;5120128;27;20208;-74
2022/04/17 03:35:39;;;;;;;3.95;3.58;;;5.70;99.90;;;;;;5139158;27;20263;-74
2022/04/17 03:38:05;;;;;;;4.20;3.90;;;5.70;99.90;;;;;;5138173;27;20202;-74
2022/04/17 03:40:31;;;;;;;4.28;3.88;;;5.70;99.90;;;;;;5137818;27;20202;-75
2022/04/17 03:42:58;;;;;;;4.35;3.95;;;5.70;99.90;;;;;;5120542;27;20197;-74
2022/04/17 03:45:24;;;;;;;4.50;4.20;;;5.70;99.90;;;;;;5138939;27;20198;-74
2022/04/17 03:47:51;;;;;;;4.60;4.28;;;5.70;99.90;;;;;;5138244;27;20198;-74
2022/04/17 03:50:18;;;;;;;4.97;4.55;;;5.70;99.90;;;;;;5138463;27;20194;-75
2022/04/17 03:52:50;;;;;;;5.20;4.25;;;5.70;99.90;;;;;;5138261;27;20208;-74
2022/04/17 03:55:16;;;;;;;6.35;4.72;;;5.60;99.90;;;;;;5138111;27;20255;-74
2022/04/17 03:57:43;;;;;;;4.80;4.40;;;5.60;99.90;;;;;;5139066;27;20202;-74
2022/04/17 04:00:12;;;;;;;7.20;4.78;;;5.60;99.90;;;;;;5137999;27;20198;-74
2022/04/17 04:02:40;;;;;;;5.85;5.25;;;5.60;99.90;;;;;;5138108;27;20205;-74
2022/04/17 04:05:08;;;;;;;6.72;5.93;;;5.60;99.90;;;;;;5119714;27;20198;-74
2022/04/17 04:07:35;;;;;;;5.47;5.05;;;5.50;99.90;;;;;;5137683;27;20201;-74
2022/04/17 04:10:03;;;;;;;6.60;6.10;;;5.50;99.90;;;;;;5138471;27;20230;-74
2022/04/17 04:12:31;;;;;;;5.72;5.30;;;5.50;99.90;;;;;;5138373;27;20286;-74
2022/04/17 04:14:57;;;;;;;7.65;5.45;;;5.40;99.90;;;;;;5119102;27;20200;-75
2022/04/17 04:17:23;;;;;;;9.00;5.15;;;5.40;99.90;;;;;;5119559;27;20278;-75
2022/04/17 04:19:50;;;;;;;7.75;5.57;;;5.40;99.90;;;;;;5119483;27;20561;-74
2022/04/17 04:22:17;;;;;;;5.68;5.18;;;5.20;99.90;;;;;;5136746;27;20194;-74
2022/04/17 04:24:43;;;;;;;5.57;5.00;;;5.20;99.90;;;;;;5137812;27;20254;-74
2022/04/17 04:29:55;;;;;;;8.45;5.30;;;5.20;99.90;;;;;;5137752;27;20194;-74
2022/04/17 04:32:21;;;;;;;5.65;5.15;;;5.10;99.90;;;;;;5137964;27;20204;-74
2022/04/17 04:34:48;;;;;;;4.60;4.20;;;5.00;99.90;;;;;;5137788;27;20264;-75
2022/04/17 04:37:15;;;;;;;4.85;4.45;;;5.00;99.90;;;;;;5137050;27;20214;-74
2022/04/17 04:39:41;;;;;;;5.30;4.30;;;5.00;99.90;;;;;;5137514;27;20201;-75
2022/04/17 04:42:08;;;;;;;6.65;4.50;;;5.00;99.90;;;;;;5137208;27;20658;-75
2022/04/17 04:44:35;;;;;;;4.30;3.90;;;5.10;99.90;;;;;;5137280;27;20606;-75
2022/04/17 04:47:01;;;;;;;5.30;4.43;;;5.10;99.90;;;;;;5137385;27;20288;-75
2022/04/17 04:49:31;;;;;;;3.60;3.30;;;5.10;99.90;;;;;;5137868;27;20201;-74
2022/04/17 04:52:01;;;;;;;4.70;4.10;;;5.20;99.90;;;;;;5137872;27;20266;-75
2022/04/17 04:54:29;;;;;;;4.45;3.63;;;5.20;99.90;;;;;;5137423;27;20234;-75
2022/04/17 04:56:56;;;;;;;3.97;3.03;;;5.20;99.90;;;;;;5136868;27;20673;-74
2022/04/17 04:59:23;;;;;;;10.77;4.43;;;5.20;99.90;;;;;;5137406;27;20205;-75
2022/04/17 05:01:51;;;;;;;8.15;4.95;;;5.20;99.90;;;;;;5137570;27;20213;-75
2022/04/17 05:04:20;;;;;;;4.10;3.80;;;5.20;99.90;;;;;;5137377;27;20204;-75
2022/04/17 05:06:46;;;;;;;6.65;4.55;;;5.20;99.90;;;;;;5136573;27;20226;-74
2022/04/17 05:09:13;;;;;;;4.70;4.30;;;5.20;99.90;;;;;;5134698;27;20229;-75
2022/04/17 05:11:40;;;;;;;4.70;4.30;;;5.20;99.90;;;;;;5137291;27;20221;-75
2022/04/17 05:14:08;;;;;;;6.63;3.60;;;5.20;99.90;;;;;;5137169;27;20205;-75
2022/04/17 05:16:34;;;;;;;4.30;3.90;;;5.30;99.90;;;;;;5137146;27;20572;-75
2022/04/17 05:19:24;;;;;;;4.38;4.07;;;5.30;99.90;;;;;;5137388;27;20197;-75
2022/04/17 05:21:48;;;;;;;4.25;3.85;;;5.40;99.90;;;;;;5121539;27;20213;-74
2022/04/17 05:24:16;;;;;;;4.40;4.05;;;5.50;99.90;;;;;;5136060;27;20198;-75
2022/04/17 05:26:43;;;;;;;5.28;4.78;;;5.60;99.90;;;;;;5135994;27;20202;-75
2022/04/17 05:29:09;;;;;;;5.95;5.35;;;5.60;99.90;;;;;;5136122;27;20205;-75
2022/04/17 05:31:36;;;;;;;5.47;4.85;;;5.70;99.90;;;;;;5136588;27;20229;-75
2022/04/17 05:34:02;;;;;;;4.97;4.45;;;5.80;99.90;;;;;;5136708;27;20561;-75
2022/04/17 05:36:29;;;;;;;5.32;4.90;;;5.80;99.90;;;;;;5136473;27;20214;-75
2022/04/17 05:38:56;;;;;;;6.15;4.88;;;5.90;99.90;;;;;;5118166;27;20221;-75
2022/04/17 05:41:24;;;;;;;5.47;5.05;;;5.90;99.90;;;;;;5136520;27;20661;-75
2022/04/17 05:43:51;;;;;;;5.25;4.70;;;5.90;99.90;;;;;;5136684;27;20250;-75
2022/04/17 05:46:18;;;;;;;5.82;5.13;;;6.00;99.90;;;;;;5118078;28;20209;-75
2022/04/17 05:48:46;;;;;;;5.63;4.47;;;6.00;99.90;;;;;;5119560;27;20197;-75
2022/04/17 05:51:12;;;;;;;5.20;4.40;;;6.10;99.90;;;;;;5137040;27;20209;-75
2022/04/17 05:53:39;;;;;;;5.50;4.63;;;6.10;99.90;;;;;;5136294;27;20205;-75
2022/04/17 05:56:06;;;;;;;4.40;4.00;;;6.20;99.90;;;;;;5117882;27;20224;-75
2022/04/17 05:58:33;;;;;;;5.03;4.30;;;6.20;99.90;;;;;;5118669;27;20198;-75
2022/04/17 06:01:02;;;;;;;4.45;4.15;;;6.30;99.90;;;;;;5136274;27;20736;-75
2022/04/17 06:03:29;;;;;;;5.75;3.97;;;6.40;99.90;;;;;;5136743;27;20198;-74
2022/04/17 06:05:55;;;;;;;8.15;4.75;;;6.40;99.90;;;;;;5135920;27;20221;-74
2022/04/17 06:08:23;;;;;;;4.80;4.40;;;6.50;99.90;;;;;;5134289;27;20237;-75
2022/04/17 06:10:50;;;;;;;4.63;4.32;;;6.50;99.90;;;;;;5134956;27;20202;-75
2022/04/17 06:13:18;;;;;;;5.20;4.75;;;6.60;99.90;;;;;;5135464;27;20210;-75
2022/04/17 06:15:44;;;;;;;4.30;3.90;;;6.60;99.90;;;;;;5135962;27;20529;-75
2022/04/17 06:18:12;;;;;;;4.35;3.95;;;6.70;99.90;;;;;;5136412;28;20624;-75
2022/04/17 06:20:39;;;;;;;4.60;4.20;;;6.80;99.90;;;;;;5116965;28;20679;-74
2022/04/17 06:23:05;;;;;;;4.88;4.38;;;6.80;99.90;;;;;;5135829;28;20635;-74
2022/04/17 06:25:32;;;;;;;4.53;3.97;;;6.90;99.90;;;;;;5136041;28;20201;-74
2022/04/17 06:27:59;;;;;;;4.00;3.70;;;6.90;99.90;;;;;;5135670;28;20213;-74
2022/04/17 06:30:26;;;;;;;4.70;4.25;;;7.00;99.90;;;;;;5135322;28;20201;-75
2022/04/17 06:32:52;;;;;;;4.10;3.70;;;7.00;99.90;;;;;;5135688;28;20251;-74
2022/04/17 06:35:20;;;;;;;4.05;3.60;;;6.90;99.90;;;;;;5116884;28;20202;-75
2022/04/17 06:37:51;;;;;;;4.82;3.80;;;7.00;99.90;;;;;;5136040;27;20214;-75
2022/04/17 06:40:19;;;;;;;3.85;3.55;;;7.20;99.90;;;;;;5140380;27;20194;-75
2022/04/17 06:42:47;;;;;;;5.32;3.85;;;7.40;99.90;;;;;;5139745;27;20654;-75
2022/04/17 06:45:15;;;;;;;4.07;3.55;;;7.50;99.90;;;;;;5139787;27;20204;-74
2022/04/17 06:47:42;;;;;;;5.43;4.15;;;7.60;99.90;;;;;;5139939;27;20568;-75
2022/04/17 06:50:10;;;;;;;9.38;4.38;;;7.70;99.90;;;;;;5139368;27;20201;-75
2022/04/17 06:52:36;;;;;;;3.45;3.17;;;7.80;99.90;;;;;;5138441;27;20601;-75
2022/04/17 06:55:04;;;;;;;6.45;4.05;;;7.90;99.90;;;;;;5139462;27;20213;-76
2022/04/17 06:57:32;;;;;;;4.30;3.90;;;8.10;99.90;;;;;;5139823;27;20232;-75
2022/04/17 07:00:06;;;;;;;4.65;4.25;;;8.20;99.90;;;;;;5139963;27;20205;-75
2022/04/17 07:02:32;;;;;;;4.20;3.50;;;8.20;99.90;;;;;;5139084;27;20207;-75
2022/04/17 07:04:59;;;;;;;3.80;3.60;;;8.40;99.90;;;;;;5139102;27;20197;-75
2022/04/17 07:07:25;;;;;;;4.90;4.40;;;8.50;99.90;;;;;;5120690;27;20206;-75
2022/04/17 07:09:52;;;;;;;4.07;3.78;;;8.50;99.90;;;;;;5117214;28;20237;-75
2022/04/17 07:12:18;;;;;;;3.97;3.65;;;8.70;99.90;;;;;;5117008;28;20661;-75
2022/04/17 07:14:44;;;;;;;3.85;3.38;;;8.80;99.90;;;;;;5118916;27;20205;-75
2022/04/17 07:17:11;;;;;;;4.43;3.90;;;8.90;99.90;;;;;;5117829;28;20218;-75
2022/04/17 07:19:38;;;;;;;4.25;3.88;;;8.90;99.90;;;;;;5118612;28;20668;-75
2022/04/17 07:22:05;;;;;;;4.03;3.83;;;8.90;99.90;;;;;;5118351;28;20195;-75
2022/04/17 07:24:31;;;;;;;3.70;3.40;;;9.00;99.90;;;;;;5116424;28;20203;-75
2022/04/17 07:27:00;;;;;;;3.45;3.15;;;9.00;99.90;;;;;;5118610;28;20199;-75
2022/04/17 07:29:27;;;;;;;6.65;4.65;;;9.10;99.90;;;;;;5100667;28;20205;-75
2022/04/17 07:31:53;;;;;;;3.65;3.42;;;9.20;99.90;;;;;;5117522;28;20718;-75
2022/04/17 07:34:20;;;;;;;8.18;3.42;;;9.30;99.90;;;;;;5116741;28;20202;-75
2022/04/17 07:36:47;;;;;;;3.58;3.28;;;9.50;99.90;;;;;;5117918;28;20229;-75
2022/04/17 07:39:17;;;;;;;5.18;3.40;;;9.50;99.90;;;;;;5119102;28;20199;-74
2022/04/17 07:41:46;;;;;;;3.58;3.28;;;9.70;99.90;;;;;;5118554;28;20199;-75
2022/04/17 07:44:14;;;;;;;3.92;3.72;;;9.60;99.90;;;;;;5118587;27;20198;-75
2022/04/17 07:46:43;;;;;;;4.20;3.63;;;9.60;99.90;;;;;;5117991;28;20293;-75
2022/04/17 07:49:10;;;;;;;4.03;3.70;;;9.60;99.90;;;;;;5118357;28;20202;-75
2022/04/17 07:51:37;;;;;;;4.90;3.70;;;9.90;99.90;;;;;;5117875;28;20263;-75
2022/04/17 07:54:03;;;;;;;3.80;3.50;;;9.80;99.90;;;;;;5118963;27;20210;-75
2022/04/17 07:56:30;;;;;;;3.55;3.30;;;9.90;99.90;;;;;;5118022;28;20225;-75
2022/04/17 07:58:56;;;;;;;4.03;3.45;;;9.90;99.90;;;;;;5118317;28;20195;-75
2022/04/17 08:01:23;;;;;;;3.85;3.55;;;10.30;99.90;;;;;;5120591;28;20198;-76
2022/04/17 08:03:50;;;;;;;4.25;3.00;;;10.40;99.90;;;;;;5118921;28;20332;-75
2022/04/17 08:06:20;;;;;;;3.63;3.33;;;10.50;99.90;;;;;;5118012;28;20756;-75
2022/04/17 08:08:49;;;;;;;3.67;3.38;;;10.60;99.90;;;;;;5117427;28;20242;-75
2022/04/17 08:11:16;;;;;;;5.90;3.33;;;10.90;99.90;;;;;;5118544;28;20198;-75
2022/04/17 08:13:44;;;;;;;3.85;3.55;;;10.50;99.90;;;;;;5118638;28;20194;-75
2022/04/17 08:16:10;;;;;;;3.25;3.05;;;10.40;99.90;;;;;;5116608;28;20682;-75
2022/04/17 08:18:37;;;;;;;3.78;3.20;;;10.60;99.90;;;;;;5116918;28;20201;-75
2022/04/17 08:21:04;;;;;;;3.15;2.95;;;10.70;99.90;;;;;;5117443;28;20195;-75
2022/04/17 08:23:31;;;;;;;3.45;3.15;;;10.90;99.90;;;;;;5118256;27;20198;-75
2022/04/17 08:25:57;;;;;;;3.83;3.50;;;11.10;99.90;;;;;;5117793;28;20201;-75
2022/04/17 08:28:24;;;;;;;3.75;3.25;;;11.20;99.90;;;;;;5117393;28;20311;-75
2022/04/17 08:30:50;;;;;;;5.75;3.63;;;11.40;99.90;;;;;;5117201;27;20213;-75
2022/04/17 08:33:17;;;;;;;7.82;3.67;;;11.00;99.90;;;;;;5115938;28;20607;-75
2022/04/17 08:35:46;;;;;;;4.18;3.40;;;11.30;99.90;;;;;;5115883;28;20199;-75
2022/04/17 08:38:14;;;;;;;5.28;3.70;;;11.30;99.90;;;;;;5117072;28;20621;-75
2022/04/17 08:40:41;;;;;;;3.28;3.08;;;11.20;99.90;;;;;;5117518;28;20203;-75
2022/04/17 08:43:10;;;;;;;3.60;3.40;;;11.40;99.90;;;;;;5117567;28;20309;-75
2022/04/17 08:45:37;;;;;;;3.70;3.50;;;11.50;99.90;;;;;;5116599;28;20195;-75
2022/04/17 08:48:04;;;;;;;3.28;2.85;;;11.60;99.90;;;;;;5117452;28;20202;-75
2022/04/17 08:50:32;;;;;;;3.20;3.00;;;11.20;99.90;;;;;;5117476;28;20228;-75
2022/04/17 08:53:01;;;;;;;3.45;3.15;;;11.20;99.90;;;;;;5117047;28;20684;-75
2022/04/17 08:55:28;;;;;;;3.42;3.20;;;11.50;99.90;;;;;;5116318;28;20203;-75
2022/04/17 08:57:55;;;;;;;3.65;3.10;;;11.80;99.90;;;;;;5116059;28;20233;-75
2022/04/17 09:00:21;;;;;;;3.55;3.35;;;12.20;99.90;;;;;;5116331;28;20209;-75
2022/04/17 09:02:49;;;;;;;5.07;3.05;;;12.30;99.90;;;;;;5115827;28;20555;-75
2022/04/17 09:05:18;;;;;;;3.45;3.15;;;12.10;99.90;;;;;;5116703;28;20282;-75
2022/04/17 09:07:50;;;;;;;3.65;3.45;;;12.30;99.90;;;;;;5116930;28;20268;-75
2022/04/17 09:10:27;;;;;;;2.70;2.60;;;12.40;99.90;;;;;;5137069;27;20589;-75
2022/04/17 09:13:01;;;;;;;3.60;3.10;;;12.40;99.90;;;;;;5136421;27;20619;-75
2022/04/17 09:15:37;;;;;;;3.70;2.70;;;12.50;99.90;;;;;;5136689;27;20628;-75
2022/04/17 09:18:08;;;;;;;3.45;3.15;;;12.30;99.90;;;;;;5136074;27;20629;-75
2022/04/17 09:20:34;;;;;;;4.20;3.03;;;12.50;99.90;;;;;;5136680;27;20673;-75
2022/04/17 09:23:01;;;;;;;2.53;2.43;;;12.40;99.90;;;;;;5136891;27;21146;-75
2022/04/17 09:25:28;;;;;;;3.22;3.03;;;12.70;99.90;;;;;;5119185;27;20611;-75
2022/04/17 09:28:06;;;;;;;2.43;2.30;;;12.50;99.90;;;;;;5136869;27;20553;-75
2022/04/17 09:30:35;;;;;;;3.10;2.90;;;12.70;99.90;;;;;;5137002;27;20612;-75
2022/04/17 09:33:12;;;;;;;5.18;3.47;;;12.90;99.90;;;;;;5137327;27;20611;-75
2022/04/17 09:35:39;;;;;;;4.72;2.50;;;12.60;99.90;;;;;;5137273;27;20178;-75
2022/04/17 09:38:07;;;;;;;3.40;3.00;;;12.80;99.90;;;;;;5137054;27;20744;-75
2022/04/17 09:40:36;;;;;;;2.80;2.70;;;13.10;99.90;;;;;;5136416;27;20607;-75
2022/04/17 09:43:12;;;;;;;2.83;2.63;;;13.10;99.90;;;;;;5136883;27;20607;-75
2022/04/17 09:46:00;;;;;;;2.80;2.70;;;13.20;99.90;;;;;;5136936;27;20622;-75
2022/04/17 09:48:32;;;;;;;2.53;2.40;;;13.40;99.90;;;;;;5135728;27;20202;-75
2022/04/17 09:51:00;;;;;;;2.60;2.50;;;13.30;99.90;;;;;;5136705;27;20615;-75
2022/04/17 09:53:30;;;;;;;3.13;2.93;;;13.40;99.90;;;;;;5117992;27;20621;-75
2022/04/17 09:56:08;;;;;;;2.90;2.80;;;13.40;99.90;;;;;;5136922;27;21272;-75
2022/04/17 09:58:51;;;;;;;3.33;3.00;;;13.60;99.90;;;;;;5136450;27;20611;-75
2022/04/17 10:01:19;;;;;;;3.20;3.00;;;13.70;99.90;;;;;;5137310;27;20605;-75
2022/04/17 10:03:46;;;;;;;6.63;2.90;;;13.60;99.90;;;;;;5137219;27;20608;-75
2022/04/17 10:06:13;;;;;;;4.60;2.90;;;13.30;99.90;;;;;;5136251;27;20643;-75
2022/04/17 10:08:43;;;;;;;2.90;2.70;;;13.30;99.90;;;;;;5114196;28;20623;-75
2022/04/17 10:11:09;;;;;;;3.00;2.80;;;13.60;99.90;;;;;;5116052;28;20605;-75
2022/04/17 10:13:35;;;;;;;2.83;2.57;;;13.70;99.90;;;;;;5114724;28;21015;-75
2022/04/17 10:16:06;;;;;;;3.00;2.70;;;13.60;99.90;;;;;;5116054;28;20608;-75
2022/04/17 10:18:34;;;;;;;3.50;2.97;;;13.90;99.90;;;;;;5116932;28;20647;-75
2022/04/17 10:21:03;;;;;;;2.60;2.50;;;14.10;99.90;;;;;;5115863;28;21177;-75
2022/04/17 10:23:30;;;;;;;5.90;3.63;;;14.10;99.90;;;;;;5115430;28;20616;-75
2022/04/17 10:25:59;;;;;;;3.03;2.70;;;14.40;99.90;;;;;;5114838;28;20619;-75
2022/04/17 10:28:29;;;;;;;3.07;2.90;;;14.30;99.90;;;;;;5115987;28;20581;-75
2022/04/17 10:31:17;;;;;;;2.70;2.53;;;14.70;99.90;;;;;;5116447;28;21272;-75
2022/04/17 10:34:06;;;;;;;2.80;2.57;;;15.10;99.90;;;;;;5114356;28;20613;-75
2022/04/17 10:37:15;;;;;;;3.33;3.03;;;14.60;99.90;;;;;;5115240;28;20616;-73
2022/04/17 10:39:48;;;;;;;3.00;2.47;;;14.70;99.90;;;;;;5116313;28;20567;-74
2022/04/17 10:42:14;;;;;;;2.70;2.60;;;14.90;99.90;;;;;;5116097;28;20564;-74
2022/04/17 10:44:45;;;;;;;3.40;3.10;;;14.80;99.90;;;;;;5116552;28;20691;-74
2022/04/17 10:47:21;;;;;;;3.00;2.80;;;15.20;99.90;;;;;;5116048;28;20613;-74
2022/04/17 10:50:00;;;;;;;3.23;3.03;;;14.60;99.90;;;;;;5115501;28;20603;-75
2022/04/17 10:52:29;;;;;;;2.63;2.43;;;15.00;99.90;;;;;;5114348;28;20612;-75
2022/04/17 10:54:55;;;;;;;3.20;3.00;;;15.20;99.90;;;;;;5115551;28;20624;-76
2022/04/17 10:57:25;;;;;;;2.60;2.50;;;15.00;99.90;;;;;;5115243;28;20659;-74
2022/04/17 11:00:25;;;;;;;2.60;2.50;;;14.80;99.90;;;;;;5114807;28;20569;-75
2022/04/17 11:02:51;;;;;;;5.57;3.20;;;14.60;99.90;;;;;;5115491;28;20615;-74
2022/04/17 11:08:21;;;;;;;3.50;3.20;;;14.90;99.90;;;;;;5120567;28;20631;-75
2022/04/17 11:11:03;;;;;;;3.10;2.90;;;15.40;99.90;;;;;;5135554;28;20623;-75
2022/04/17 11:13:34;;;;;;;3.63;3.33;;;16.00;99.90;;;;;;5135812;28;20567;-75
2022/04/17 11:16:06;;;;;;;4.57;3.20;;;16.20;99.90;;;;;;5136030;28;20574;-75
2022/04/17 11:18:33;;;;;;;3.80;3.37;;;16.70;99.90;;;;;;5135271;28;20647;-75
2022/04/17 11:21:00;;;;;;;3.20;2.87;;;17.00;99.90;;;;;;5135329;28;20612;-75
2022/04/17 11:23:48;;;;;;;4.17;3.20;;;16.20;99.90;;;;;;5135446;28;20606;-75
2022/04/17 11:26:15;;;;;;;3.17;2.93;;;16.60;99.90;;;;;;5137827;27;20607;-76
2022/04/17 11:28:57;;;;;;;2.87;2.67;;;16.90;99.90;;;;;;5138890;27;21017;-76
2022/04/17 11:31:31;;;;;;;2.50;2.40;;;16.10;99.90;;;;;;5138761;27;20572;-76
2022/04/17 11:34:00;;;;;;;2.50;2.30;;;16.00;99.90;;;;;;5120066;27;20645;-76
2022/04/17 11:36:27;;;;;;;2.90;2.70;;;16.40;99.90;;;;;;5138443;27;20610;-75
2022/04/17 11:38:55;;;;;;;2.80;2.60;;;16.50;99.90;;;;;;5138125;27;20647;-75
2022/04/17 11:41:24;;;;;;;3.47;3.00;;;16.50;99.90;;;;;;5138641;27;20670;-76
2022/04/17 11:44:01;;;;;;;2.70;2.50;;;17.50;99.90;;;;;;5102486;27;20611;-76
2022/04/17 11:46:28;;;;;;;3.43;3.13;;;17.40;99.90;;;;;;5138661;27;20611;-76
2022/04/17 11:48:54;;;;;;;3.10;2.90;;;17.80;99.90;;;;;;5120415;27;20954;-76
2022/04/17 11:51:21;;;;;;;5.13;3.27;;;16.70;99.90;;;;;;5120253;27;20603;-76
2022/04/17 11:53:47;;;;;;;2.57;2.40;;;17.40;99.90;;;;;;5138696;27;20615;-75
2022/04/17 11:56:14;;;;;;;3.07;2.97;;;17.50;99.90;;;;;;5120540;27;20656;-75
2022/04/17 11:58:40;;;;;;;2.50;2.23;;;18.30;99.90;;;;;;5137641;27;20655;-76
2022/04/17 12:01:08;;;;;;;2.37;2.27;;;18.80;99.90;;;;;;5138249;27;20619;-76
2022/04/17 12:03:44;;;;;;;2.67;2.57;;;18.50;99.90;;;;;;5120458;27;20620;-75
2022/04/17 12:06:11;;;;;;;2.40;2.30;;;18.60;99.90;;;;;;5137871;27;20634;-76
2022/04/17 12:08:39;;;;;;;2.70;2.60;;;18.90;99.90;;;;;;5137711;27;21078;-76
2022/04/17 12:11:07;;;;;;;2.73;2.60;;;19.00;99.90;;;;;;5138270;27;20608;-76
2022/04/17 12:13:33;;;;;;;3.67;2.50;;;18.40;99.90;;;;;;5137871;27;20616;-75
2022/04/17 12:16:02;;;;;;;3.90;2.60;;;18.30;99.90;;;;;;5138745;27;20613;-76
2022/04/17 12:18:29;;;;;;;3.10;2.90;;;18.40;99.90;;;;;;5138986;27;21001;-76
2022/04/17 12:21:02;;;;;;;4.23;2.57;;;18.50;99.90;;;;;;5138115;27;20603;-76
2022/04/17 12:23:29;;;;;;;5.70;2.83;;;19.60;99.90;;;;;;5137131;27;20619;-76
2022/04/17 12:25:58;;;;;;;4.20;2.37;;;19.10;99.90;;;;;;5137304;27;21166;-75
2022/04/17 12:28:25;;;;;;;2.40;2.30;;;18.80;99.90;;;;;;5136804;27;20630;-76
2022/04/17 12:30:52;;;;;;;2.60;2.40;;;18.20;99.90;;;;;;5137347;27;20604;-76
2022/04/17 12:33:28;;;;;;;2.30;2.10;;;17.90;99.90;;;;;;5136952;27;20619;-76
2022/04/17 12:36:09;;;;;;;2.70;2.50;;;18.80;99.90;;;;;;5137372;27;21059;-76
2022/04/17 12:38:38;;;;;;;2.47;2.37;;;18.10;99.90;;;;;;5137336;27;20616;-76
2022/04/17 12:41:26;;;;;;;2.50;2.40;;;18.30;99.90;;;;;;5138134;27;20612;-75
2022/04/17 12:43:53;;;;;;;2.50;2.40;;;19.10;99.90;;;;;;5136362;27;20624;-75
2022/04/17 12:46:32;;;;;;;2.83;2.60;;;19.80;99.90;;;;;;5118398;27;20635;-75
2022/04/17 12:49:16;;;;;;;2.80;2.60;;;19.50;99.90;;;;;;5137109;27;20580;-75
2022/04/17 12:51:56;;;;;;;2.83;2.60;;;19.90;99.90;;;;;;5136879;27;20618;-75
2022/04/17 12:54:29;;;;;;;2.60;2.50;;;19.90;99.90;;;;;;5136764;27;20956;-75
2022/04/17 12:57:06;;;;;;;2.80;2.70;;;20.20;99.90;;;;;;5136400;27;20583;-75
2022/04/17 12:59:47;;;;;;;2.77;2.67;;;20.90;99.90;;;;;;5117673;27;20958;-75
2022/04/17 13:02:16;;;;;;;2.43;2.33;;;21.00;99.90;;;;;;5136700;27;20932;-75
2022/04/17 13:04:45;;;;;;;2.90;2.70;;;20.20;99.90;;;;;;5137521;27;20604;-75
2022/04/17 13:07:14;;;;;;;2.80;2.70;;;20.50;99.90;;;;;;5136321;27;21210;-75
2022/04/17 13:09:54;;;;;;;2.50;2.40;;;20.40;99.90;;;;;;5136605;27;21091;-75
2022/04/17 13:12:43;;;;;;;2.40;2.30;;;21.20;99.90;;;;;;5136803;27;20603;-75
2022/04/17 13:15:15;;;;;;;2.60;2.50;;;21.30;99.90;;;;;;5136700;27;20623;-76